Flugplatz Bobzin (UL)

Hier findest Du alle Informationen zum Flugplatz Bobzin (UL).

Informationen für Piloten zum Flugplatz Bobzin

Hier findest Du alle relevanten Informationen, die Du als Pilot benötigst, um Bobzin anzufliegen.

Flugplatz: Bobzin ICAO-Code: UL Flugplatz
Frequenz Turm: 123,425 Mhz GAFOR Gebiet: -
Frequenz Ground: 123,425 Mhz Mogas: nein
Platzrunde: N 0 ft Landegebühr: 2 €
Platzhöhe: Sunrise: 02:58 Uhr UTC
Pisten: 10/28 - 600 m x 60 m, GRAS Sunset: 19:26 Uhr UTC

Mitglieder, die in Bobzin fliegen

Flugwetter am Flugplatz Bobzin

Die METAR Information stammen aus EDOP (41.28 km entfernt).

METAR Code:
2019/03/31 14:50
EDOP 311450Z 35010KT 310V020 CAVOK 09/M06 Q1025

Flugschulen am Flugplatz Bobzin

Am Flugplatz Bobzin gibt es leider keine Flugschule.

Benachbarte Flugplätze und Flugschulen

Es gibt 6 weitere Flugplätze in einem Umkreis von 50 km um den Flugplatz Bobzin.

Flugplatz Bobzin UL Platz 0.00 km
Flugplatz Teldau- Amholz UL Platz 28.32 km
Flugplatz Pinnow EDBP 29.67 km
Flugplatz Neustadt-Glewe EDAN 32.73 km
Flugplatz Schwerin-Parchim EDOP 41.28 km
Flugplatz Lübeck-Blankensee EDHL 46.17 km
Jetzt anmelden

Passwort vergessen

Umfrage Archiv

Sendet Ihr ADS-B und/oder FLARM?

Ja
81.6 %
Nein
18.4 %
Stimmen: 147 | Diskussion
Anzeige: Roland Aircraft
Statistik Alle Mitglieder

Aktuell sind 45 Besucher online, davon 2 Mitglieder und 43 Gäste.


Mitglieder online:
monstertyp  Schubschrauber 

Anzeige: ULPower Aero Engines Anzeige: Pocket FMS